sensor_id;sensor_type;location;lat;lon;timestamp;P1;durP1;ratioP1;P2;durP2;ratioP2
15712;SDS011;7957;51.608;6.916;2022-12-11T00:00:37;57.73;;;32.10;;
15712;SDS011;7957;51.608;6.916;2022-12-11T00:03:05;57.13;;;32.60;;
15712;SDS011;7957;51.608;6.916;2022-12-11T00:05:32;56.40;;;31.83;;
15712;SDS011;7957;51.608;6.916;2022-12-11T00:08:01;59.20;;;33.07;;
15712;SDS011;7957;51.608;6.916;2022-12-11T00:10:28;55.63;;;32.03;;
15712;SDS011;7957;51.608;6.916;2022-12-11T00:12:54;56.60;;;32.37;;
15712;SDS011;7957;51.608;6.916;2022-12-11T00:15:21;59.57;;;32.73;;
15712;SDS011;7957;51.608;6.916;2022-12-11T00:17:49;61.47;;;32.90;;
15712;SDS011;7957;51.608;6.916;2022-12-11T00:20:16;56.03;;;32.67;;
15712;SDS011;7957;51.608;6.916;2022-12-11T00:22:44;57.00;;;33.03;;
15712;SDS011;7957;51.608;6.916;2022-12-11T00:25:12;59.00;;;32.97;;
15712;SDS011;7957;51.608;6.916;2022-12-11T00:27:39;58.40;;;32.40;;
15712;SDS011;7957;51.608;6.916;2022-12-11T00:30:09;57.47;;;32.77;;
15712;SDS011;7957;51.608;6.916;2022-12-11T00:32:37;56.73;;;32.67;;
15712;SDS011;7957;51.608;6.916;2022-12-11T00:35:08;59.40;;;32.63;;
15712;SDS011;7957;51.608;6.916;2022-12-11T00:37:36;58.13;;;32.33;;
15712;SDS011;7957;51.608;6.916;2022-12-11T00:40:03;58.80;;;32.27;;
15712;SDS011;7957;51.608;6.916;2022-12-11T00:42:31;60.10;;;34.00;;
15712;SDS011;7957;51.608;6.916;2022-12-11T00:45:00;60.33;;;33.87;;
15712;SDS011;7957;51.608;6.916;2022-12-11T00:47:27;61.73;;;33.83;;
15712;SDS011;7957;51.608;6.916;2022-12-11T00:49:54;60.73;;;34.20;;
15712;SDS011;7957;51.608;6.916;2022-12-11T00:52:21;63.97;;;33.73;;
15712;SDS011;7957;51.608;6.916;2022-12-11T00:54:51;63.47;;;34.40;;
15712;SDS011;7957;51.608;6.916;2022-12-11T00:57:19;67.50;;;33.87;;
15712;SDS011;7957;51.608;6.916;2022-12-11T00:59:47;64.73;;;34.83;;
15712;SDS011;7957;51.608;6.916;2022-12-11T01:02:14;66.10;;;34.47;;
15712;SDS011;7957;51.608;6.916;2022-12-11T01:04:41;60.03;;;33.00;;
15712;SDS011;7957;51.608;6.916;2022-12-11T01:07:08;64.60;;;33.40;;
15712;SDS011;7957;51.608;6.916;2022-12-11T01:09:35;62.40;;;33.83;;
15712;SDS011;7957;51.608;6.916;2022-12-11T01:12:19;65.83;;;33.80;;
15712;SDS011;7957;51.608;6.916;2022-12-11T01:14:48;69.13;;;34.27;;
15712;SDS011;7957;51.608;6.916;2022-12-11T01:17:15;63.57;;;35.13;;
15712;SDS011;7957;51.608;6.916;2022-12-11T01:19:42;61.03;;;34.47;;
15712;SDS011;7957;51.608;6.916;2022-12-11T01:22:08;64.80;;;33.70;;
15712;SDS011;7957;51.608;6.916;2022-12-11T01:24:36;64.10;;;34.20;;
15712;SDS011;7957;51.608;6.916;2022-12-11T01:27:03;69.17;;;36.70;;
15712;SDS011;7957;51.608;6.916;2022-12-11T01:29:30;67.10;;;36.80;;
15712;SDS011;7957;51.608;6.916;2022-12-11T01:31:59;68.13;;;35.27;;
15712;SDS011;7957;51.608;6.916;2022-12-11T01:34:28;66.73;;;35.03;;
15712;SDS011;7957;51.608;6.916;2022-12-11T01:36:55;71.43;;;36.30;;
15712;SDS011;7957;51.608;6.916;2022-12-11T01:39:23;64.47;;;35.47;;
15712;SDS011;7957;51.608;6.916;2022-12-11T01:41:55;68.00;;;35.43;;
15712;SDS011;7957;51.608;6.916;2022-12-11T01:47:28;69.37;;;35.30;;
15712;SDS011;7957;51.608;6.916;2022-12-11T01:49:55;70.63;;;36.50;;
15712;SDS011;7957;51.608;6.916;2022-12-11T01:52:22;71.77;;;36.40;;
15712;SDS011;7957;51.608;6.916;2022-12-11T01:54:49;70.10;;;36.57;;
15712;SDS011;7957;51.608;6.916;2022-12-11T01:57:16;70.63;;;37.23;;
15712;SDS011;7957;51.608;6.916;2022-12-11T01:59:44;70.17;;;37.00;;
15712;SDS011;7957;51.608;6.916;2022-12-11T02:02:14;69.70;;;35.93;;
15712;SDS011;7957;51.608;6.916;2022-12-11T02:04:46;71.23;;;36.03;;
15712;SDS011;7957;51.608;6.916;2022-12-11T02:07:13;68.00;;;36.63;;
15712;SDS011;7957;51.608;6.916;2022-12-11T02:12:11;75.37;;;37.17;;
15712;SDS011;7957;51.608;6.916;2022-12-11T02:14:42;68.53;;;37.27;;
15712;SDS011;7957;51.608;6.916;2022-12-11T02:17:15;68.63;;;36.13;;
15712;SDS011;7957;51.608;6.916;2022-12-11T02:19:50;67.67;;;35.97;;
15712;SDS011;7957;51.608;6.916;2022-12-11T02:22:27;67.13;;;35.80;;
15712;SDS011;7957;51.608;6.916;2022-12-11T02:25:08;67.77;;;36.17;;
15712;SDS011;7957;51.608;6.916;2022-12-11T02:27:42;71.30;;;37.33;;
15712;SDS011;7957;51.608;6.916;2022-12-11T02:30:14;66.87;;;35.93;;
15712;SDS011;7957;51.608;6.916;2022-12-11T02:32:43;64.03;;;35.77;;
15712;SDS011;7957;51.608;6.916;2022-12-11T02:35:14;64.60;;;35.90;;
15712;SDS011;7957;51.608;6.916;2022-12-11T02:37:45;66.27;;;36.47;;
15712;SDS011;7957;51.608;6.916;2022-12-11T02:40:16;71.57;;;38.20;;
15712;SDS011;7957;51.608;6.916;2022-12-11T02:42:48;66.13;;;36.10;;
15712;SDS011;7957;51.608;6.916;2022-12-11T02:45:19;70.90;;;37.97;;
15712;SDS011;7957;51.608;6.916;2022-12-11T02:47:48;71.13;;;39.70;;
15712;SDS011;7957;51.608;6.916;2022-12-11T02:50:17;65.83;;;37.40;;
15712;SDS011;7957;51.608;6.916;2022-12-11T02:52:47;68.93;;;38.23;;
15712;SDS011;7957;51.608;6.916;2022-12-11T02:55:16;68.00;;;37.37;;
15712;SDS011;7957;51.608;6.916;2022-12-11T02:57:44;67.93;;;37.90;;
15712;SDS011;7957;51.608;6.916;2022-12-11T03:00:14;68.63;;;39.23;;
15712;SDS011;7957;51.608;6.916;2022-12-11T03:02:44;65.47;;;37.67;;
15712;SDS011;7957;51.608;6.916;2022-12-11T03:05:11;70.67;;;39.17;;
15712;SDS011;7957;51.608;6.916;2022-12-11T03:07:40;72.00;;;38.80;;
15712;SDS011;7957;51.608;6.916;2022-12-11T03:10:11;69.77;;;38.10;;
15712;SDS011;7957;51.608;6.916;2022-12-11T03:12:41;71.23;;;39.33;;
15712;SDS011;7957;51.608;6.916;2022-12-11T03:15:12;69.73;;;39.37;;
15712;SDS011;7957;51.608;6.916;2022-12-11T03:17:44;72.17;;;39.43;;
15712;SDS011;7957;51.608;6.916;2022-12-11T03:20:19;69.47;;;38.87;;
15712;SDS011;7957;51.608;6.916;2022-12-11T03:22:55;67.90;;;38.07;;
15712;SDS011;7957;51.608;6.916;2022-12-11T03:25:28;71.80;;;39.60;;
15712;SDS011;7957;51.608;6.916;2022-12-11T03:28:02;69.80;;;39.00;;
15712;SDS011;7957;51.608;6.916;2022-12-11T03:30:36;69.90;;;38.47;;
15712;SDS011;7957;51.608;6.916;2022-12-11T03:33:07;65.80;;;38.57;;
15712;SDS011;7957;51.608;6.916;2022-12-11T03:35:37;67.80;;;37.93;;
15712;SDS011;7957;51.608;6.916;2022-12-11T03:38:07;67.37;;;37.73;;
15712;SDS011;7957;51.608;6.916;2022-12-11T03:40:37;64.73;;;36.43;;
15712;SDS011;7957;51.608;6.916;2022-12-11T03:43:08;63.10;;;35.77;;
15712;SDS011;7957;51.608;6.916;2022-12-11T03:45:37;63.57;;;35.40;;
15712;SDS011;7957;51.608;6.916;2022-12-11T03:48:06;62.23;;;35.93;;
15712;SDS011;7957;51.608;6.916;2022-12-11T03:50:34;61.07;;;35.53;;
15712;SDS011;7957;51.608;6.916;2022-12-11T03:53:02;62.53;;;36.17;;
15712;SDS011;7957;51.608;6.916;2022-12-11T03:55:30;63.37;;;35.77;;
15712;SDS011;7957;51.608;6.916;2022-12-11T03:58:03;61.57;;;35.93;;
15712;SDS011;7957;51.608;6.916;2022-12-11T04:00:30;63.13;;;35.57;;
15712;SDS011;7957;51.608;6.916;2022-12-11T04:02:57;61.07;;;34.63;;
15712;SDS011;7957;51.608;6.916;2022-12-11T04:05:40;57.10;;;34.83;;
15712;SDS011;7957;51.608;6.916;2022-12-11T04:08:08;62.80;;;34.83;;
15712;SDS011;7957;51.608;6.916;2022-12-11T04:10:36;62.20;;;35.30;;
15712;SDS011;7957;51.608;6.916;2022-12-11T04:13:03;55.47;;;34.03;;
15712;SDS011;7957;51.608;6.916;2022-12-11T04:15:30;59.43;;;34.87;;
15712;SDS011;7957;51.608;6.916;2022-12-11T04:17:56;57.17;;;35.03;;
15712;SDS011;7957;51.608;6.916;2022-12-11T04:20:42;56.50;;;33.93;;
15712;SDS011;7957;51.608;6.916;2022-12-11T04:23:26;56.30;;;33.57;;
15712;SDS011;7957;51.608;6.916;2022-12-11T04:26:11;55.57;;;33.27;;
15712;SDS011;7957;51.608;6.916;2022-12-11T04:28:41;56.90;;;33.87;;
15712;SDS011;7957;51.608;6.916;2022-12-11T04:31:09;55.53;;;33.80;;
15712;SDS011;7957;51.608;6.916;2022-12-11T04:33:52;55.60;;;33.50;;
15712;SDS011;7957;51.608;6.916;2022-12-11T04:36:20;55.23;;;32.33;;
15712;SDS011;7957;51.608;6.916;2022-12-11T04:38:47;55.67;;;33.80;;
15712;SDS011;7957;51.608;6.916;2022-12-11T04:41:14;58.97;;;34.43;;
15712;SDS011;7957;51.608;6.916;2022-12-11T04:43:42;55.83;;;33.33;;
15712;SDS011;7957;51.608;6.916;2022-12-11T04:46:10;57.83;;;33.73;;
15712;SDS011;7957;51.608;6.916;2022-12-11T04:48:38;54.40;;;33.30;;
15712;SDS011;7957;51.608;6.916;2022-12-11T04:51:06;57.37;;;34.47;;
15712;SDS011;7957;51.608;6.916;2022-12-11T04:53:36;56.60;;;34.60;;
15712;SDS011;7957;51.608;6.916;2022-12-11T04:56:03;61.67;;;35.10;;
15712;SDS011;7957;51.608;6.916;2022-12-11T04:58:30;59.80;;;34.90;;
15712;SDS011;7957;51.608;6.916;2022-12-11T05:00:58;55.10;;;34.47;;
15712;SDS011;7957;51.608;6.916;2022-12-11T05:03:25;60.57;;;35.30;;
15712;SDS011;7957;51.608;6.916;2022-12-11T05:05:53;54.90;;;33.93;;
15712;SDS011;7957;51.608;6.916;2022-12-11T05:08:20;58.47;;;35.67;;
15712;SDS011;7957;51.608;6.916;2022-12-11T05:10:54;57.07;;;34.63;;
15712;SDS011;7957;51.608;6.916;2022-12-11T05:13:22;59.63;;;34.87;;
15712;SDS011;7957;51.608;6.916;2022-12-11T05:15:49;57.67;;;35.60;;
15712;SDS011;7957;51.608;6.916;2022-12-11T05:18:16;60.20;;;35.43;;
15712;SDS011;7957;51.608;6.916;2022-12-11T05:20:43;63.50;;;37.27;;
15712;SDS011;7957;51.608;6.916;2022-12-11T05:23:10;62.07;;;36.37;;
15712;SDS011;7957;51.608;6.916;2022-12-11T05:25:37;62.87;;;37.03;;
15712;SDS011;7957;51.608;6.916;2022-12-11T05:28:06;61.97;;;35.37;;
15712;SDS011;7957;51.608;6.916;2022-12-11T05:30:58;62.70;;;37.63;;
15712;SDS011;7957;51.608;6.916;2022-12-11T05:33:52;59.30;;;35.33;;
15712;SDS011;7957;51.608;6.916;2022-12-11T05:36:26;64.03;;;38.23;;
15712;SDS011;7957;51.608;6.916;2022-12-11T05:38:55;63.47;;;37.37;;
15712;SDS011;7957;51.608;6.916;2022-12-11T05:41:24;65.30;;;37.37;;
15712;SDS011;7957;51.608;6.916;2022-12-11T05:43:55;62.67;;;36.97;;
15712;SDS011;7957;51.608;6.916;2022-12-11T05:46:23;62.90;;;36.83;;
15712;SDS011;7957;51.608;6.916;2022-12-11T05:48:52;62.40;;;37.33;;
15712;SDS011;7957;51.608;6.916;2022-12-11T05:51:20;66.60;;;39.50;;
15712;SDS011;7957;51.608;6.916;2022-12-11T05:53:48;64.70;;;38.80;;
15712;SDS011;7957;51.608;6.916;2022-12-11T05:56:17;60.87;;;37.13;;
15712;SDS011;7957;51.608;6.916;2022-12-11T05:58:46;62.07;;;37.37;;
15712;SDS011;7957;51.608;6.916;2022-12-11T06:01:15;60.03;;;36.60;;
15712;SDS011;7957;51.608;6.916;2022-12-11T06:03:44;60.30;;;37.07;;
15712;SDS011;7957;51.608;6.916;2022-12-11T06:06:12;60.87;;;37.13;;
15712;SDS011;7957;51.608;6.916;2022-12-11T06:08:39;64.50;;;37.70;;
15712;SDS011;7957;51.608;6.916;2022-12-11T06:11:06;61.73;;;37.20;;
15712;SDS011;7957;51.608;6.916;2022-12-11T06:13:33;60.90;;;37.03;;
15712;SDS011;7957;51.608;6.916;2022-12-11T06:16:01;56.33;;;34.90;;
15712;SDS011;7957;51.608;6.916;2022-12-11T06:18:30;58.53;;;35.77;;
15712;SDS011;7957;51.608;6.916;2022-12-11T06:20:57;58.37;;;35.27;;
15712;SDS011;7957;51.608;6.916;2022-12-11T06:23:24;57.03;;;34.73;;
15712;SDS011;7957;51.608;6.916;2022-12-11T06:25:51;57.57;;;35.60;;
15712;SDS011;7957;51.608;6.916;2022-12-11T06:28:17;59.23;;;35.43;;
15712;SDS011;7957;51.608;6.916;2022-12-11T06:31:05;57.83;;;35.40;;
15712;SDS011;7957;51.608;6.916;2022-12-11T06:33:36;57.80;;;34.73;;
15712;SDS011;7957;51.608;6.916;2022-12-11T06:36:05;55.73;;;35.07;;
15712;SDS011;7957;51.608;6.916;2022-12-11T06:38:34;52.90;;;33.70;;
15712;SDS011;7957;51.608;6.916;2022-12-11T06:41:01;53.07;;;34.80;;
15712;SDS011;7957;51.608;6.916;2022-12-11T06:43:41;56.23;;;34.53;;
15712;SDS011;7957;51.608;6.916;2022-12-11T06:46:10;54.53;;;32.90;;
15712;SDS011;7957;51.608;6.916;2022-12-11T06:48:40;52.23;;;33.47;;
15712;SDS011;7957;51.608;6.916;2022-12-11T06:51:09;51.07;;;32.90;;
15712;SDS011;7957;51.608;6.916;2022-12-11T06:53:40;55.63;;;34.17;;
15712;SDS011;7957;51.608;6.916;2022-12-11T06:56:09;52.17;;;33.77;;
15712;SDS011;7957;51.608;6.916;2022-12-11T06:58:38;53.33;;;33.37;;
15712;SDS011;7957;51.608;6.916;2022-12-11T07:01:12;47.93;;;31.33;;
15712;SDS011;7957;51.608;6.916;2022-12-11T07:03:45;50.83;;;32.77;;
15712;SDS011;7957;51.608;6.916;2022-12-11T07:06:12;53.33;;;32.97;;
15712;SDS011;7957;51.608;6.916;2022-12-11T07:08:40;49.90;;;32.57;;
15712;SDS011;7957;51.608;6.916;2022-12-11T07:11:09;50.00;;;32.17;;
15712;SDS011;7957;51.608;6.916;2022-12-11T07:13:42;47.43;;;32.07;;
15712;SDS011;7957;51.608;6.916;2022-12-11T07:16:10;51.53;;;33.73;;
15712;SDS011;7957;51.608;6.916;2022-12-11T07:18:38;53.97;;;34.03;;
15712;SDS011;7957;51.608;6.916;2022-12-11T07:21:08;49.37;;;32.40;;
15712;SDS011;7957;51.608;6.916;2022-12-11T07:23:40;49.10;;;31.13;;
15712;SDS011;7957;51.608;6.916;2022-12-11T07:26:12;49.73;;;32.70;;
15712;SDS011;7957;51.608;6.916;2022-12-11T07:28:40;49.40;;;32.10;;
15712;SDS011;7957;51.608;6.916;2022-12-11T07:31:09;45.20;;;31.17;;
15712;SDS011;7957;51.608;6.916;2022-12-11T07:33:38;47.87;;;31.40;;
15712;SDS011;7957;51.608;6.916;2022-12-11T07:36:09;48.93;;;32.40;;
15712;SDS011;7957;51.608;6.916;2022-12-11T07:38:37;50.27;;;31.73;;
15712;SDS011;7957;51.608;6.916;2022-12-11T07:41:05;48.97;;;32.47;;
15712;SDS011;7957;51.608;6.916;2022-12-11T07:43:33;50.97;;;33.23;;
15712;SDS011;7957;51.608;6.916;2022-12-11T07:46:01;47.10;;;32.27;;
15712;SDS011;7957;51.608;6.916;2022-12-11T07:48:29;49.83;;;32.90;;
15712;SDS011;7957;51.608;6.916;2022-12-11T07:51:05;49.73;;;32.03;;
15712;SDS011;7957;51.608;6.916;2022-12-11T07:53:35;49.53;;;31.80;;
15712;SDS011;7957;51.608;6.916;2022-12-11T07:56:02;47.13;;;31.10;;
15712;SDS011;7957;51.608;6.916;2022-12-11T07:58:28;47.97;;;31.87;;
15712;SDS011;7957;51.608;6.916;2022-12-11T08:00:58;48.47;;;31.77;;
15712;SDS011;7957;51.608;6.916;2022-12-11T08:03:25;49.67;;;32.37;;
15712;SDS011;7957;51.608;6.916;2022-12-11T08:05:52;49.10;;;32.50;;
15712;SDS011;7957;51.608;6.916;2022-12-11T08:08:21;47.57;;;31.53;;
15712;SDS011;7957;51.608;6.916;2022-12-11T08:10:48;46.37;;;32.13;;
15712;SDS011;7957;51.608;6.916;2022-12-11T08:13:15;48.27;;;32.63;;
15712;SDS011;7957;51.608;6.916;2022-12-11T08:15:42;48.80;;;31.93;;
15712;SDS011;7957;51.608;6.916;2022-12-11T08:18:12;48.63;;;32.20;;
15712;SDS011;7957;51.608;6.916;2022-12-11T08:20:39;46.27;;;30.77;;
15712;SDS011;7957;51.608;6.916;2022-12-11T08:23:07;48.10;;;33.70;;
15712;SDS011;7957;51.608;6.916;2022-12-11T08:25:36;48.20;;;32.37;;
15712;SDS011;7957;51.608;6.916;2022-12-11T08:28:03;51.53;;;32.87;;
15712;SDS011;7957;51.608;6.916;2022-12-11T08:30:30;49.97;;;33.97;;
15712;SDS011;7957;51.608;6.916;2022-12-11T08:32:57;47.43;;;32.73;;
15712;SDS011;7957;51.608;6.916;2022-12-11T08:35:24;51.07;;;34.47;;
15712;SDS011;7957;51.608;6.916;2022-12-11T08:37:53;52.97;;;35.30;;
15712;SDS011;7957;51.608;6.916;2022-12-11T08:40:20;49.33;;;33.20;;
15712;SDS011;7957;51.608;6.916;2022-12-11T08:42:48;51.47;;;33.77;;
15712;SDS011;7957;51.608;6.916;2022-12-11T08:45:16;49.57;;;33.50;;
15712;SDS011;7957;51.608;6.916;2022-12-11T08:47:43;49.27;;;33.47;;
15712;SDS011;7957;51.608;6.916;2022-12-11T08:50:10;49.60;;;34.80;;
15712;SDS011;7957;51.608;6.916;2022-12-11T08:52:37;51.00;;;33.77;;
15712;SDS011;7957;51.608;6.916;2022-12-11T08:55:04;47.80;;;34.30;;
15712;SDS011;7957;51.608;6.916;2022-12-11T08:57:32;46.47;;;32.47;;
15712;SDS011;7957;51.608;6.916;2022-12-11T09:00:00;50.73;;;35.50;;
15712;SDS011;7957;51.608;6.916;2022-12-11T09:02:27;50.17;;;33.97;;
15712;SDS011;7957;51.608;6.916;2022-12-11T09:04:54;50.53;;;35.03;;
15712;SDS011;7957;51.608;6.916;2022-12-11T09:07:21;47.77;;;32.13;;
15712;SDS011;7957;51.608;6.916;2022-12-11T09:09:48;48.67;;;33.80;;
15712;SDS011;7957;51.608;6.916;2022-12-11T09:12:15;51.77;;;33.00;;
15712;SDS011;7957;51.608;6.916;2022-12-11T09:14:42;47.70;;;32.67;;
15712;SDS011;7957;51.608;6.916;2022-12-11T09:17:10;48.13;;;32.77;;
15712;SDS011;7957;51.608;6.916;2022-12-11T09:19:37;47.00;;;32.57;;
15712;SDS011;7957;51.608;6.916;2022-12-11T09:22:04;48.57;;;32.67;;
15712;SDS011;7957;51.608;6.916;2022-12-11T09:24:34;52.10;;;34.57;;
15712;SDS011;7957;51.608;6.916;2022-12-11T09:27:01;46.67;;;32.03;;
15712;SDS011;7957;51.608;6.916;2022-12-11T09:29:28;48.33;;;31.87;;
15712;SDS011;7957;51.608;6.916;2022-12-11T09:31:56;45.50;;;30.57;;
15712;SDS011;7957;51.608;6.916;2022-12-11T09:34:24;44.93;;;31.77;;
15712;SDS011;7957;51.608;6.916;2022-12-11T09:36:51;43.93;;;31.50;;
15712;SDS011;7957;51.608;6.916;2022-12-11T09:39:18;42.90;;;30.77;;
15712;SDS011;7957;51.608;6.916;2022-12-11T09:41:47;44.77;;;31.90;;
15712;SDS011;7957;51.608;6.916;2022-12-11T09:44:20;45.47;;;31.33;;
15712;SDS011;7957;51.608;6.916;2022-12-11T09:47:00;47.40;;;31.80;;
15712;SDS011;7957;51.608;6.916;2022-12-11T09:49:30;43.97;;;30.60;;
15712;SDS011;7957;51.608;6.916;2022-12-11T09:52:09;45.90;;;31.83;;
15712;SDS011;7957;51.608;6.916;2022-12-11T09:54:42;43.40;;;30.47;;
15712;SDS011;7957;51.608;6.916;2022-12-11T10:00:16;44.37;;;30.20;;
15712;SDS011;7957;51.608;6.916;2022-12-11T10:05:46;39.20;;;28.20;;
15712;SDS011;7957;51.608;6.916;2022-12-11T10:08:22;39.40;;;29.00;;
15712;SDS011;7957;51.608;6.916;2022-12-11T10:10:56;39.03;;;28.17;;
15712;SDS011;7957;51.608;6.916;2022-12-11T10:13:33;36.43;;;27.13;;
15712;SDS011;7957;51.608;6.916;2022-12-11T10:16:04;41.77;;;28.63;;
15712;SDS011;7957;51.608;6.916;2022-12-11T10:18:38;37.10;;;27.70;;
15712;SDS011;7957;51.608;6.916;2022-12-11T10:21:08;40.10;;;27.10;;
15712;SDS011;7957;51.608;6.916;2022-12-11T10:23:39;37.47;;;27.23;;
15712;SDS011;7957;51.608;6.916;2022-12-11T10:26:11;36.87;;;26.67;;
15712;SDS011;7957;51.608;6.916;2022-12-11T10:28:42;37.03;;;26.73;;
15712;SDS011;7957;51.608;6.916;2022-12-11T10:31:10;36.77;;;26.80;;
15712;SDS011;7957;51.608;6.916;2022-12-11T10:33:45;32.97;;;25.77;;
15712;SDS011;7957;51.608;6.916;2022-12-11T10:36:26;32.23;;;24.93;;
15712;SDS011;7957;51.608;6.916;2022-12-11T10:38:54;33.40;;;25.20;;
15712;SDS011;7957;51.608;6.916;2022-12-11T10:41:22;32.37;;;25.50;;
15712;SDS011;7957;51.608;6.916;2022-12-11T10:43:53;34.57;;;25.47;;
15712;SDS011;7957;51.608;6.916;2022-12-11T10:46:20;35.43;;;25.83;;
15712;SDS011;7957;51.608;6.916;2022-12-11T10:48:50;33.37;;;25.30;;
15712;SDS011;7957;51.608;6.916;2022-12-11T10:51:18;34.83;;;25.93;;
15712;SDS011;7957;51.608;6.916;2022-12-11T10:53:52;34.57;;;25.37;;
15712;SDS011;7957;51.608;6.916;2022-12-11T10:56:25;31.90;;;24.03;;
15712;SDS011;7957;51.608;6.916;2022-12-11T10:58:54;36.47;;;25.97;;
15712;SDS011;7957;51.608;6.916;2022-12-11T11:01:23;34.67;;;25.80;;
15712;SDS011;7957;51.608;6.916;2022-12-11T11:04:04;35.17;;;24.47;;
15712;SDS011;7957;51.608;6.916;2022-12-11T11:06:39;32.37;;;24.80;;
15712;SDS011;7957;51.608;6.916;2022-12-11T11:11:55;33.17;;;25.23;;
15712;SDS011;7957;51.608;6.916;2022-12-11T11:14:22;32.83;;;25.20;;
15712;SDS011;7957;51.608;6.916;2022-12-11T11:16:50;33.43;;;26.13;;
15712;SDS011;7957;51.608;6.916;2022-12-11T11:19:21;34.53;;;26.03;;
15712;SDS011;7957;51.608;6.916;2022-12-11T11:21:50;34.70;;;25.63;;
15712;SDS011;7957;51.608;6.916;2022-12-11T11:24:23;34.43;;;25.90;;
15712;SDS011;7957;51.608;6.916;2022-12-11T11:26:55;32.33;;;25.20;;
15712;SDS011;7957;51.608;6.916;2022-12-11T11:29:25;34.07;;;25.93;;
15712;SDS011;7957;51.608;6.916;2022-12-11T11:31:55;34.07;;;25.47;;
15712;SDS011;7957;51.608;6.916;2022-12-11T11:34:22;31.10;;;25.23;;
15712;SDS011;7957;51.608;6.916;2022-12-11T11:36:54;32.83;;;25.33;;
15712;SDS011;7957;51.608;6.916;2022-12-11T11:39:24;33.63;;;25.80;;
15712;SDS011;7957;51.608;6.916;2022-12-11T11:41:57;34.03;;;25.27;;
15712;SDS011;7957;51.608;6.916;2022-12-11T11:44:31;34.73;;;25.23;;
15712;SDS011;7957;51.608;6.916;2022-12-11T11:47:03;34.50;;;25.73;;
15712;SDS011;7957;51.608;6.916;2022-12-11T11:49:40;35.83;;;25.43;;
15712;SDS011;7957;51.608;6.916;2022-12-11T11:52:14;33.67;;;25.43;;
15712;SDS011;7957;51.608;6.916;2022-12-11T11:54:49;33.83;;;25.60;;
15712;SDS011;7957;51.608;6.916;2022-12-11T11:57:33;33.33;;;25.23;;
15712;SDS011;7957;51.608;6.916;2022-12-11T12:00:10;33.57;;;25.67;;
15712;SDS011;7957;51.608;6.916;2022-12-11T12:02:44;34.07;;;25.80;;
15712;SDS011;7957;51.608;6.916;2022-12-11T12:05:13;33.27;;;24.53;;
15712;SDS011;7957;51.608;6.916;2022-12-11T12:07:44;30.60;;;24.67;;
15712;SDS011;7957;51.608;6.916;2022-12-11T12:10:18;33.80;;;25.03;;
15712;SDS011;7957;51.608;6.916;2022-12-11T12:12:56;33.07;;;25.43;;
15712;SDS011;7957;51.608;6.916;2022-12-11T12:15:33;31.17;;;24.50;;
15712;SDS011;7957;51.608;6.916;2022-12-11T12:18:11;31.67;;;24.97;;
15712;SDS011;7957;51.608;6.916;2022-12-11T12:20:45;31.63;;;24.40;;
15712;SDS011;7957;51.608;6.916;2022-12-11T12:23:24;31.60;;;25.37;;
15712;SDS011;7957;51.608;6.916;2022-12-11T12:26:06;30.37;;;24.47;;
15712;SDS011;7957;51.608;6.916;2022-12-11T12:28:42;30.07;;;24.40;;
15712;SDS011;7957;51.608;6.916;2022-12-11T12:31:28;33.17;;;25.37;;
15712;SDS011;7957;51.608;6.916;2022-12-11T12:34:09;33.03;;;24.10;;
15712;SDS011;7957;51.608;6.916;2022-12-11T12:36:45;32.03;;;25.50;;
15712;SDS011;7957;51.608;6.916;2022-12-11T12:39:21;33.60;;;24.67;;
15712;SDS011;7957;51.608;6.916;2022-12-11T12:41:55;30.33;;;23.67;;
15712;SDS011;7957;51.608;6.916;2022-12-11T12:44:34;28.67;;;23.13;;
15712;SDS011;7957;51.608;6.916;2022-12-11T12:47:07;31.23;;;24.37;;
15712;SDS011;7957;51.608;6.916;2022-12-11T12:49:39;29.27;;;24.50;;
15712;SDS011;7957;51.608;6.916;2022-12-11T12:52:11;31.17;;;23.70;;
15712;SDS011;7957;51.608;6.916;2022-12-11T12:54:41;31.37;;;24.03;;
15712;SDS011;7957;51.608;6.916;2022-12-11T12:57:31;30.97;;;24.23;;
15712;SDS011;7957;51.608;6.916;2022-12-11T13:00:02;29.33;;;24.47;;
15712;SDS011;7957;51.608;6.916;2022-12-11T13:02:29;30.87;;;24.20;;
15712;SDS011;7957;51.608;6.916;2022-12-11T13:04:59;29.13;;;23.10;;
15712;SDS011;7957;51.608;6.916;2022-12-11T13:07:30;29.10;;;22.83;;
15712;SDS011;7957;51.608;6.916;2022-12-11T13:09:59;32.67;;;24.30;;
15712;SDS011;7957;51.608;6.916;2022-12-11T13:12:33;31.33;;;24.13;;
15712;SDS011;7957;51.608;6.916;2022-12-11T13:15:25;30.63;;;23.63;;
15712;SDS011;7957;51.608;6.916;2022-12-11T13:17:56;28.27;;;22.37;;
15712;SDS011;7957;51.608;6.916;2022-12-11T13:20:24;28.70;;;22.93;;
15712;SDS011;7957;51.608;6.916;2022-12-11T13:22:54;31.13;;;24.53;;
15712;SDS011;7957;51.608;6.916;2022-12-11T13:25:44;30.03;;;23.63;;
15712;SDS011;7957;51.608;6.916;2022-12-11T13:28:22;27.23;;;22.93;;
15712;SDS011;7957;51.608;6.916;2022-12-11T13:30:57;28.17;;;22.53;;
15712;SDS011;7957;51.608;6.916;2022-12-11T13:33:25;29.53;;;23.63;;
15712;SDS011;7957;51.608;6.916;2022-12-11T13:38:50;30.37;;;24.13;;
15712;SDS011;7957;51.608;6.916;2022-12-11T13:41:20;30.50;;;24.23;;
15712;SDS011;7957;51.608;6.916;2022-12-11T13:43:48;29.73;;;24.23;;
15712;SDS011;7957;51.608;6.916;2022-12-11T13:46:20;32.13;;;25.13;;
15712;SDS011;7957;51.608;6.916;2022-12-11T13:48:51;28.93;;;22.37;;
15712;SDS011;7957;51.608;6.916;2022-12-11T13:51:22;31.00;;;23.57;;
15712;SDS011;7957;51.608;6.916;2022-12-11T13:54:01;30.43;;;23.80;;
15712;SDS011;7957;51.608;6.916;2022-12-11T13:56:35;28.00;;;23.60;;
15712;SDS011;7957;51.608;6.916;2022-12-11T13:59:02;27.57;;;22.80;;
15712;SDS011;7957;51.608;6.916;2022-12-11T14:01:31;27.77;;;22.93;;
15712;SDS011;7957;51.608;6.916;2022-12-11T14:04:00;27.30;;;22.60;;
15712;SDS011;7957;51.608;6.916;2022-12-11T14:06:35;28.07;;;22.93;;
15712;SDS011;7957;51.608;6.916;2022-12-11T14:09:04;27.73;;;22.63;;
15712;SDS011;7957;51.608;6.916;2022-12-11T14:11:33;27.20;;;22.87;;
15712;SDS011;7957;51.608;6.916;2022-12-11T14:14:03;26.47;;;21.83;;
15712;SDS011;7957;51.608;6.916;2022-12-11T14:16:37;27.17;;;22.53;;
15712;SDS011;7957;51.608;6.916;2022-12-11T14:19:05;27.70;;;22.47;;
15712;SDS011;7957;51.608;6.916;2022-12-11T14:21:35;27.23;;;21.70;;
15712;SDS011;7957;51.608;6.916;2022-12-11T14:24:02;28.77;;;22.80;;
15712;SDS011;7957;51.608;6.916;2022-12-11T14:26:31;27.70;;;22.93;;
15712;SDS011;7957;51.608;6.916;2022-12-11T14:29:02;27.10;;;22.80;;
15712;SDS011;7957;51.608;6.916;2022-12-11T14:31:29;27.47;;;22.27;;
15712;SDS011;7957;51.608;6.916;2022-12-11T14:34:01;29.43;;;23.47;;
15712;SDS011;7957;51.608;6.916;2022-12-11T14:36:32;28.83;;;22.77;;
15712;SDS011;7957;51.608;6.916;2022-12-11T14:39:03;28.97;;;23.17;;
15712;SDS011;7957;51.608;6.916;2022-12-11T14:41:38;29.30;;;23.63;;
15712;SDS011;7957;51.608;6.916;2022-12-11T14:44:13;30.03;;;24.13;;
15712;SDS011;7957;51.608;6.916;2022-12-11T14:46:44;27.57;;;23.40;;
15712;SDS011;7957;51.608;6.916;2022-12-11T14:49:16;26.83;;;22.07;;
15712;SDS011;7957;51.608;6.916;2022-12-11T14:51:48;30.37;;;23.40;;
15712;SDS011;7957;51.608;6.916;2022-12-11T14:54:25;28.27;;;23.47;;
15712;SDS011;7957;51.608;6.916;2022-12-11T14:56:55;25.80;;;21.87;;
15712;SDS011;7957;51.608;6.916;2022-12-11T14:59:23;26.73;;;21.83;;
15712;SDS011;7957;51.608;6.916;2022-12-11T15:01:57;27.83;;;22.47;;
15712;SDS011;7957;51.608;6.916;2022-12-11T15:05:01;26.73;;;22.57;;
15712;SDS011;7957;51.608;6.916;2022-12-11T15:07:37;30.37;;;23.03;;
15712;SDS011;7957;51.608;6.916;2022-12-11T15:10:05;25.60;;;21.87;;